PWSweather.com
Personal Weather Stations
Station Observations
IACHARNE2
Acharnes, AthensGR

AcharnesAthensGR

Lat: 38.097318, Lon: 23.732

Elevation: 640

Station Type: ProWeatherStation

http://www.meteoacharnes.gr

High Low Average
Temperature 62.4°F16.9°C 53.2°F11.8°C 56.9°F13.8°C
Dew Point 59.2°F15.1°C 48.3°F9.1°C 54.3°F12.4°C
Winds 4.0 mph 6.4 kmh Calm Calm Calm ENECalm ENE
Wind Gusts 18.3 mph29.5 kmh -- 3.0 mph4.8 kmh
Humidity 94% 75% 91%
Pressure 30.07 in1018.3 mb 29.87 in1011.5 mb -
Precipitation 0.34 in8.6 mm - -
Hour Temp Dew Point Humidity Winds Wind Gusts Pressure Precip Precip Rate Daily Precip Total
12:00 AM 54.3°F12.4°C 52.6°F11.4°C 94% Calm Calm 0.7 mph1.1 kmh 29.92 in1013.2 mb 0.00 in0.0 mm 0.00 in0.0 mm 0.00 in0.0 mm
12:05 AM 54.3°F12.4°C 52.6°F11.4°C 94% Calm Calm 2.2 mph3.5 kmh 29.92 in1013.2 mb 0.00 in0.0 mm 0.00 in0.0 mm 0.00 in0.0 mm
12:10 AM 54.1°F12.3°C 52.5°F11.4°C 94% Calm Calm 2.2 mph3.5 kmh 29.92 in1013.2 mb 0.00 in0.0 mm 0.00 in0.0 mm 0.00 in0.0 mm
12:15 AM 54.1°F12.3°C 52.5°F11.4°C 94% Calm Calm 0.7 mph1.1 kmh 29.91 in1012.9 mb 0.00 in0.0 mm 0.00 in0.0 mm 0.00 in0.0 mm
12:20 AM 54.0°F12.2°C 52.3°F11.3°C 94% Calm Calm -- 29.91 in1012.9 mb 0.00 in0.0 mm 0.00 in0.0 mm 0.00 in0.0 mm
12:25 AM 53.8°F12.1°C 52.1°F11.2°C 94% Calm Calm -- 29.91 in1012.9 mb 0.00 in0.0 mm 0.00 in0.0 mm 0.00 in0.0 mm
12:30 AM 54.0°F12.2°C 52.3°F11.3°C 94% Calm Calm 0.7 mph1.1 kmh 29.91 in1012.9 mb 0.00 in0.0 mm 0.00 in0.0 mm 0.00 in0.0 mm
12:35 AM 54.0°F12.2°C 52.3°F11.3°C 94% Calm Calm 0.7 mph1.1 kmh 29.91 in1012.9 mb 0.00 in0.0 mm 0.00 in0.0 mm 0.00 in0.0 mm
12:40 AM 54.0°F12.2°C 52.3°F11.3°C 94% Calm Calm 2.2 mph3.5 kmh 29.92 in1013.2 mb 0.00 in0.0 mm 0.00 in0.0 mm 0.00 in0.0 mm
12:45 AM 53.8°F12.1°C 52.1°F11.2°C 94% 0.2 mph NNE0.3 kmh NNE 3.1 mph5.0 kmh 29.91 in1012.9 mb 0.00 in0.0 mm 0.00 in0.0 mm 0.00 in0.0 mm
12:50 AM 53.8°F12.1°C 52.1°F11.2°C 94% 0.9 mph NNE1.4 kmh NNE 4.5 mph7.2 kmh 29.91 in1012.9 mb 0.00 in0.0 mm 0.00 in0.0 mm 0.00 in0.0 mm
12:55 AM 53.2°F11.8°C 51.6°F10.9°C 94% 1.0 mph N1.6 kmh N 4.5 mph7.2 kmh 29.91 in1012.9 mb 0.00 in0.0 mm 0.00 in0.0 mm 0.00 in0.0 mm
01:00 AM 53.8°F12.1°C 52.1°F11.2°C 94% 0.4 mph N0.6 kmh N 4.5 mph7.2 kmh 29.91 in1012.9 mb 0.00 in0.0 mm 0.00 in0.0 mm 0.00 in0.0 mm
01:05 AM 53.8°F12.1°C 52.1°F11.2°C 94% 0.5 mph N0.8 kmh N 4.5 mph7.2 kmh 29.91 in1012.9 mb 0.00 in0.0 mm 0.00 in0.0 mm 0.00 in0.0 mm
01:10 AM 53.6°F12.0°C 51.9°F11.1°C 94% 0.4 mph N0.6 kmh N 3.1 mph5.0 kmh 29.91 in1012.9 mb 0.00 in0.0 mm 0.00 in0.0 mm 0.00 in0.0 mm
01:15 AM 53.6°F12.0°C 51.9°F11.1°C 94% 0.3 mph NNE0.5 kmh NNE 3.1 mph5.0 kmh 29.91 in1012.9 mb 0.00 in0.0 mm 0.00 in0.0 mm 0.00 in0.0 mm
01:20 AM 53.6°F12.0°C 51.9°F11.1°C 94% 0.7 mph NNE1.1 kmh NNE 4.5 mph7.2 kmh 29.91 in1012.9 mb 0.00 in0.0 mm 0.00 in0.0 mm 0.00 in0.0 mm
01:25 AM 53.8°F12.1°C 52.1°F11.2°C 94% 0.7 mph NNE1.1 kmh NNE 4.5 mph7.2 kmh 29.91 in1012.9 mb 0.00 in0.0 mm 0.00 in0.0 mm 0.00 in0.0 mm
01:30 AM 53.8°F12.1°C 52.1°F11.2°C 94% 0.3 mph NE0.5 kmh NE 3.1 mph5.0 kmh 29.91 in1012.9 mb 0.00 in0.0 mm 0.00 in0.0 mm 0.00 in0.0 mm
01:35 AM 54.0°F12.2°C 52.3°F11.3°C 94% 0.2 mph NNE0.3 kmh NNE 3.1 mph5.0 kmh 29.91 in1012.9 mb 0.00 in0.0 mm 0.00 in0.0 mm 0.00 in0.0 mm
01:40 AM 54.0°F12.2°C 52.3°F11.3°C 94% 0.1 mph N0.2 kmh N 3.1 mph5.0 kmh 29.91 in1012.9 mb 0.00 in0.0 mm 0.00 in0.0 mm 0.00 in0.0 mm
01:45 AM 54.0°F12.2°C 52.3°F11.3°C 94% 0.1 mph N0.2 kmh N 3.1 mph5.0 kmh 29.91 in1012.9 mb 0.00 in0.0 mm 0.00 in0.0 mm 0.00 in0.0 mm
01:50 AM 54.0°F12.2°C 52.3°F11.3°C 94% 0.2 mph N0.3 kmh N 5.4 mph8.7 kmh 29.91 in1012.9 mb 0.00 in0.0 mm 0.00 in0.0 mm 0.00 in0.0 mm
01:55 AM 54.1°F12.3°C 52.5°F11.4°C 94% 0.2 mph NE0.3 kmh NE 5.4 mph8.7 kmh 29.91 in1012.9 mb 0.00 in0.0 mm 0.00 in0.0 mm 0.00 in0.0 mm
02:00 AM 54.0°F12.2°C 52.3°F11.3°C 94% 0.2 mph NE0.3 kmh NE 3.8 mph6.1 kmh 29.91 in1012.9 mb 0.00 in0.0 mm 0.00 in0.0 mm 0.00 in0.0 mm
02:05 AM 53.8°F12.1°C 52.1°F11.2°C 94% 1.0 mph NE1.6 kmh NE 6.0 mph9.7 kmh 29.91 in1012.9 mb 0.00 in0.0 mm 0.00 in0.0 mm 0.00 in0.0 mm
02:10 AM 54.0°F12.2°C 52.3°F11.3°C 94% 1.3 mph NE2.1 kmh NE 6.0 mph9.7 kmh 29.91 in1012.9 mb 0.00 in0.0 mm 0.00 in0.0 mm 0.00 in0.0 mm
02:15 AM 53.6°F12.0°C 51.9°F11.1°C 94% 1.6 mph NE2.6 kmh NE 6.9 mph11.1 kmh 29.91 in1012.9 mb 0.00 in0.0 mm 0.00 in0.0 mm 0.00 in0.0 mm
02:20 AM 53.8°F12.1°C 52.1°F11.2°C 94% 1.7 mph NE2.7 kmh NE 6.9 mph11.1 kmh 29.91 in1012.9 mb 0.00 in0.0 mm 0.00 in0.0 mm 0.00 in0.0 mm
02:25 AM 54.1°F12.3°C 52.5°F11.4°C 94% 1.4 mph NE2.3 kmh NE 4.5 mph7.2 kmh 29.91 in1012.9 mb 0.00 in0.0 mm 0.00 in0.0 mm 0.00 in0.0 mm
02:30 AM 54.3°F12.4°C 52.6°F11.4°C 94% 1.2 mph NNE1.9 kmh NNE 4.5 mph7.2 kmh 29.91 in1012.9 mb 0.00 in0.0 mm 0.00 in0.0 mm 0.00 in0.0 mm
02:35 AM 54.5°F12.5°C 52.8°F11.6°C 94% 0.9 mph N1.4 kmh N 6.9 mph11.1 kmh 29.91 in1012.9 mb 0.00 in0.0 mm 0.00 in0.0 mm 0.00 in0.0 mm
02:40 AM 54.7°F12.6°C 53.0°F11.7°C 94% 0.5 mph N0.8 kmh N 6.9 mph11.1 kmh 29.91 in1012.9 mb 0.00 in0.0 mm 0.00 in0.0 mm 0.00 in0.0 mm
02:45 AM 54.7°F12.6°C 53.0°F11.7°C 94% Calm Calm 3.1 mph5.0 kmh 29.90 in1012.5 mb 0.00 in0.0 mm 0.00 in0.0 mm 0.00 in0.0 mm
02:50 AM 54.7°F12.6°C 53.0°F11.7°C 94% Calm Calm 1.6 mph2.6 kmh 29.90 in1012.5 mb 0.00 in0.0 mm 0.00 in0.0 mm 0.00 in0.0 mm
02:55 AM 54.7°F12.6°C 53.0°F11.7°C 94% Calm Calm 2.2 mph3.5 kmh 29.90 in1012.5 mb 0.00 in0.0 mm 0.00 in0.0 mm 0.00 in0.0 mm
03:00 AM 54.9°F12.7°C 53.2°F11.8°C 94% 0.1 mph NNW0.2 kmh NNW 3.8 mph6.1 kmh 29.90 in1012.5 mb 0.00 in0.0 mm 0.00 in0.0 mm 0.00 in0.0 mm
03:05 AM 54.9°F12.7°C 53.2°F11.8°C 94% 0.4 mph N0.6 kmh N 4.5 mph7.2 kmh 29.90 in1012.5 mb 0.00 in0.0 mm 0.00 in0.0 mm 0.00 in0.0 mm
03:10 AM 54.9°F12.7°C 53.2°F11.8°C 94% 0.4 mph N0.6 kmh N 4.5 mph7.2 kmh 29.90 in1012.5 mb 0.00 in0.0 mm 0.00 in0.0 mm 0.00 in0.0 mm
03:15 AM 54.9°F12.7°C 53.2°F11.8°C 94% 0.2 mph NE0.3 kmh NE 3.1 mph5.0 kmh 29.90 in1012.5 mb 0.00 in0.0 mm 0.00 in0.0 mm 0.00 in0.0 mm
03:20 AM 54.9°F12.7°C 53.2°F11.8°C 94% 0.1 mph NNE0.2 kmh NNE 3.1 mph5.0 kmh 29.89 in1012.2 mb 0.00 in0.0 mm 0.00 in0.0 mm 0.00 in0.0 mm
03:25 AM 54.9°F12.7°C 53.2°F11.8°C 94% Calm Calm 2.2 mph3.5 kmh 29.89 in1012.2 mb 0.00 in0.0 mm 0.00 in0.0 mm 0.00 in0.0 mm
03:30 AM 54.9°F12.7°C 53.2°F11.8°C 94% 0.7 mph N1.1 kmh N 5.4 mph8.7 kmh 29.89 in1012.2 mb 0.00 in0.0 mm 0.00 in0.0 mm 0.00 in0.0 mm
03:35 AM 54.7°F12.6°C 53.0°F11.7°C 94% 0.9 mph N1.4 kmh N 5.4 mph8.7 kmh 29.89 in1012.2 mb 0.00 in0.0 mm 0.00 in0.0 mm 0.00 in0.0 mm
03:40 AM 54.7°F12.6°C 53.0°F11.7°C 94% 0.5 mph N0.8 kmh N 4.5 mph7.2 kmh 29.89 in1012.2 mb 0.00 in0.0 mm 0.00 in0.0 mm 0.00 in0.0 mm
03:45 AM 54.9°F12.7°C 53.2°F11.8°C 94% 0.3 mph N0.5 kmh N 4.5 mph7.2 kmh 29.89 in1012.2 mb 0.00 in0.0 mm 0.00 in0.0 mm 0.00 in0.0 mm
03:50 AM 54.9°F12.7°C 53.2°F11.8°C 94% Calm Calm 2.2 mph3.5 kmh 29.89 in1012.2 mb 0.00 in0.0 mm 0.00 in0.0 mm 0.00 in0.0 mm
03:55 AM 54.7°F12.6°C 53.0°F11.7°C 94% Calm Calm -- 29.89 in1012.2 mb 0.00 in0.0 mm 0.00 in0.0 mm 0.00 in0.0 mm
04:00 AM 54.7°F12.6°C 53.0°F11.7°C 94% Calm Calm -- 29.89 in1012.2 mb 0.00 in0.0 mm 0.00 in0.0 mm 0.00 in0.0 mm
04:05 AM 54.7°F12.6°C 53.0°F11.7°C 94% Calm Calm -- 29.89 in1012.2 mb 0.00 in0.0 mm 0.00 in0.0 mm 0.00 in0.0 mm
04:10 AM 54.5°F12.5°C 52.8°F11.6°C 94% Calm Calm -- 29.89 in1012.2 mb 0.00 in0.0 mm 0.00 in0.0 mm 0.00 in0.0 mm
04:15 AM 54.5°F12.5°C 52.8°F11.6°C 94% Calm Calm 2.2 mph3.5 kmh 29.89 in1012.2 mb 0.00 in0.0 mm 0.00 in0.0 mm 0.00 in0.0 mm
04:20 AM 54.5°F12.5°C 52.8°F11.6°C 94% Calm Calm 2.2 mph3.5 kmh 29.89 in1012.2 mb 0.00 in0.0 mm 0.00 in0.0 mm 0.00 in0.0 mm
04:25 AM 54.5°F12.5°C 52.8°F11.6°C 94% Calm Calm 1.6 mph2.6 kmh 29.88 in1011.9 mb 0.00 in0.0 mm 0.00 in0.0 mm 0.00 in0.0 mm
04:30 AM 54.3°F12.4°C 52.6°F11.4°C 94% Calm Calm -- 29.88 in1011.9 mb 0.00 in0.0 mm 0.00 in0.0 mm 0.00 in0.0 mm
04:35 AM 54.3°F12.4°C 52.6°F11.4°C 94% Calm Calm 2.2 mph3.5 kmh 29.88 in1011.9 mb 0.00 in0.0 mm 0.00 in0.0 mm 0.00 in0.0 mm
04:40 AM 54.3°F12.4°C 52.6°F11.4°C 94% 0.1 mph N0.2 kmh N 3.1 mph5.0 kmh 29.88 in1011.9 mb 0.00 in0.0 mm 0.00 in0.0 mm 0.00 in0.0 mm
04:45 AM 54.5°F12.5°C 52.8°F11.6°C 94% 0.1 mph N0.2 kmh N 3.1 mph5.0 kmh 29.88 in1011.9 mb 0.00 in0.0 mm 0.00 in0.0 mm 0.00 in0.0 mm
04:50 AM 54.5°F12.5°C 52.8°F11.6°C 94% 0.1 mph N0.2 kmh N 2.2 mph3.5 kmh 29.88 in1011.9 mb 0.00 in0.0 mm 0.00 in0.0 mm 0.00 in0.0 mm
04:55 AM 54.5°F12.5°C 52.8°F11.6°C 94% 0.3 mph N0.5 kmh N 3.8 mph6.1 kmh 29.88 in1011.9 mb 0.00 in0.0 mm 0.00 in0.0 mm 0.00 in0.0 mm
05:00 AM 54.7°F12.6°C 53.0°F11.7°C 94% 0.3 mph N0.5 kmh N 3.8 mph6.1 kmh 29.88 in1011.9 mb 0.00 in0.0 mm 0.00 in0.0 mm 0.00 in0.0 mm
05:05 AM 54.9°F12.7°C 53.2°F11.8°C 94% 0.4 mph N0.6 kmh N 5.4 mph8.7 kmh 29.88 in1011.9 mb 0.00 in0.0 mm 0.00 in0.0 mm 0.00 in0.0 mm
05:10 AM 54.9°F12.7°C 53.2°F11.8°C 94% 0.9 mph N1.4 kmh N 5.4 mph8.7 kmh 29.88 in1011.9 mb 0.00 in0.0 mm 0.00 in0.0 mm 0.00 in0.0 mm
05:15 AM 55.0°F12.8°C 53.4°F11.9°C 94% 1.1 mph N1.8 kmh N 6.0 mph9.7 kmh 29.88 in1011.9 mb 0.00 in0.0 mm 0.00 in0.0 mm 0.00 in0.0 mm
05:20 AM 55.2°F12.9°C 53.5°F11.9°C 94% 0.9 mph N1.4 kmh N 6.0 mph9.7 kmh 29.88 in1011.9 mb 0.00 in0.0 mm 0.00 in0.0 mm 0.00 in0.0 mm
05:25 AM 55.2°F12.9°C 53.5°F11.9°C 94% 0.3 mph N0.5 kmh N 5.4 mph8.7 kmh 29.88 in1011.9 mb 0.00 in0.0 mm 0.00 in0.0 mm 0.00 in0.0 mm
05:30 AM 55.6°F13.1°C 53.9°F12.2°C 94% Calm Calm 2.2 mph3.5 kmh 29.88 in1011.9 mb 0.00 in0.0 mm 0.00 in0.0 mm 0.00 in0.0 mm
05:35 AM 55.6°F13.1°C 53.9°F12.2°C 94% Calm Calm 2.2 mph3.5 kmh 29.88 in1011.9 mb 0.00 in0.0 mm 0.00 in0.0 mm 0.00 in0.0 mm
05:40 AM 55.6°F13.1°C 53.9°F12.2°C 94% Calm Calm -- 29.88 in1011.9 mb 0.00 in0.0 mm 0.00 in0.0 mm 0.00 in0.0 mm
05:45 AM 55.6°F13.1°C 53.9°F12.2°C 94% Calm Calm 1.6 mph2.6 kmh 29.89 in1012.2 mb 0.00 in0.0 mm 0.00 in0.0 mm 0.00 in0.0 mm
05:50 AM 55.6°F13.1°C 53.9°F12.2°C 94% 0.6 mph NE1.0 kmh NE 4.5 mph7.2 kmh 29.88 in1011.9 mb 0.00 in0.0 mm 0.00 in0.0 mm 0.00 in0.0 mm
05:55 AM 55.6°F13.1°C 53.9°F12.2°C 94% 1.3 mph NE2.1 kmh NE 5.4 mph8.7 kmh 29.87 in1011.5 mb 0.00 in0.0 mm 0.00 in0.0 mm 0.00 in0.0 mm
06:00 AM 55.4°F13.0°C 53.7°F12.1°C 94% 0.9 mph NE1.4 kmh NE 5.4 mph8.7 kmh 29.88 in1011.9 mb 0.00 in0.0 mm 0.00 in0.0 mm 0.00 in0.0 mm
06:05 AM 55.6°F13.1°C 53.9°F12.2°C 94% 0.2 mph NE0.3 kmh NE 3.1 mph5.0 kmh 29.88 in1011.9 mb 0.00 in0.0 mm 0.00 in0.0 mm 0.00 in0.0 mm
06:10 AM 55.6°F13.1°C 53.9°F12.2°C 94% Calm Calm 3.8 mph6.1 kmh 29.88 in1011.9 mb 0.00 in0.0 mm 0.00 in0.0 mm 0.00 in0.0 mm
06:15 AM 55.6°F13.1°C 53.9°F12.2°C 94% 0.3 mph NE0.5 kmh NE 3.8 mph6.1 kmh 29.88 in1011.9 mb 0.00 in0.0 mm 0.00 in0.0 mm 0.00 in0.0 mm
06:20 AM 55.9°F13.3°C 54.2°F12.3°C 94% 1.1 mph NE1.8 kmh NE 6.0 mph9.7 kmh 29.87 in1011.5 mb 0.00 in0.0 mm 0.00 in0.0 mm 0.00 in0.0 mm
06:25 AM 55.8°F13.2°C 54.1°F12.3°C 94% 1.9 mph NE3.1 kmh NE 6.0 mph9.7 kmh 29.88 in1011.9 mb 0.00 in0.0 mm 0.00 in0.0 mm 0.00 in0.0 mm
06:30 AM 55.8°F13.2°C 54.1°F12.3°C 94% 1.3 mph NE2.1 kmh NE 6.0 mph9.7 kmh 29.88 in1011.9 mb 0.00 in0.0 mm 0.00 in0.0 mm 0.00 in0.0 mm
06:35 AM 55.8°F13.2°C 54.1°F12.3°C 94% 1.3 mph ENE2.1 kmh ENE 6.0 mph9.7 kmh 29.88 in1011.9 mb 0.00 in0.0 mm 0.00 in0.0 mm 0.00 in0.0 mm
06:40 AM 55.8°F13.2°C 54.1°F12.3°C 94% 1.9 mph NE3.1 kmh NE 6.0 mph9.7 kmh 29.89 in1012.2 mb 0.00 in0.0 mm 0.00 in0.0 mm 0.00 in0.0 mm
06:45 AM 56.1°F13.4°C 54.4°F12.4°C 94% 2.2 mph NE3.5 kmh NE 9.2 mph14.8 kmh 29.89 in1012.2 mb 0.00 in0.0 mm 0.00 in0.0 mm 0.00 in0.0 mm
06:50 AM 55.9°F13.3°C 54.2°F12.3°C 94% 2.2 mph NE3.5 kmh NE 9.2 mph14.8 kmh 29.89 in1012.2 mb 0.00 in0.0 mm 0.00 in0.0 mm 0.00 in0.0 mm
06:55 AM 56.1°F13.4°C 54.4°F12.4°C 94% 2.4 mph NE3.9 kmh NE 9.2 mph14.8 kmh 29.89 in1012.2 mb 0.00 in0.0 mm 0.00 in0.0 mm 0.00 in0.0 mm
07:00 AM 56.1°F13.4°C 54.4°F12.4°C 94% 2.7 mph NE4.3 kmh NE 7.6 mph12.2 kmh 29.89 in1012.2 mb 0.00 in0.0 mm 0.00 in0.0 mm 0.00 in0.0 mm
07:02 AM 55.9°F13.3°C 54.2°F12.3°C 94% 1.9 mph NE3.1 kmh NE 5.3 mph8.5 kmh 29.89 in1012.2 mb 0.00 in0.0 mm 0.00 in0.0 mm 0.00 in0.0 mm
07:05 AM 56.1°F13.4°C 54.4°F12.4°C 94% 1.0 mph NE1.6 kmh NE 5.3 mph8.5 kmh 29.89 in1012.2 mb 0.00 in0.0 mm 0.00 in0.0 mm 0.00 in0.0 mm
07:10 AM 55.9°F13.3°C 54.2°F12.3°C 94% 0.1 mph NE0.2 kmh NE 3.8 mph6.1 kmh 29.89 in1012.2 mb 0.00 in0.0 mm 0.00 in0.0 mm 0.00 in0.0 mm
07:15 AM 55.9°F13.3°C 54.2°F12.3°C 94% Calm Calm -- 29.90 in1012.5 mb 0.00 in0.0 mm 0.00 in0.0 mm 0.00 in0.0 mm
07:20 AM 55.8°F13.2°C 54.1°F12.3°C 94% Calm Calm 0.7 mph1.1 kmh 29.89 in1012.2 mb 0.00 in0.0 mm 0.00 in0.0 mm 0.00 in0.0 mm
07:25 AM 55.9°F13.3°C 54.2°F12.3°C 94% Calm Calm 0.7 mph1.1 kmh 29.89 in1012.2 mb 0.00 in0.0 mm 0.00 in0.0 mm 0.00 in0.0 mm
07:30 AM 55.8°F13.2°C 54.1°F12.3°C 94% Calm Calm 0.7 mph1.1 kmh 29.90 in1012.5 mb 0.00 in0.0 mm 0.00 in0.0 mm 0.00 in0.0 mm
07:35 AM 55.6°F13.1°C 53.9°F12.2°C 94% 0.2 mph NE0.3 kmh NE 3.1 mph5.0 kmh 29.89 in1012.2 mb 0.00 in0.0 mm 0.00 in0.0 mm 0.00 in0.0 mm
07:45 AM 55.6°F13.1°C 53.9°F12.2°C 94% 0.3 mph NNE0.5 kmh NNE 3.1 mph5.0 kmh 29.90 in1012.5 mb 0.05 in1.3 mm 0.30 in7.6 mm 0.05 in1.3 mm
07:50 AM 55.6°F13.1°C 53.9°F12.2°C 94% 0.8 mph NNE1.3 kmh NNE 4.5 mph7.2 kmh 29.90 in1012.5 mb 0.05 in1.3 mm 0.00 in0.0 mm 0.05 in1.3 mm
07:55 AM 55.4°F13.0°C 53.7°F12.1°C 94% 0.6 mph NE1.0 kmh NE 4.5 mph7.2 kmh 29.90 in1012.5 mb 0.17 in4.3 mm 1.44 in36.6 mm 0.17 in4.3 mm
08:00 AM 55.4°F13.0°C 53.7°F12.1°C 94% 0.9 mph NE1.4 kmh NE 9.2 mph14.8 kmh 29.90 in1012.5 mb 0.17 in4.3 mm 0.00 in0.0 mm 0.17 in4.3 mm
08:05 AM 55.6°F13.1°C 53.9°F12.2°C 94% 2.2 mph NE3.5 kmh NE 9.2 mph14.8 kmh 29.90 in1012.5 mb 0.17 in4.3 mm 0.00 in0.0 mm 0.17 in4.3 mm
08:10 AM 55.4°F13.0°C 53.7°F12.1°C 94% 2.8 mph NE4.5 kmh NE 8.3 mph13.4 kmh 29.90 in1012.5 mb 0.17 in4.3 mm 0.00 in0.0 mm 0.17 in4.3 mm
08:15 AM 55.4°F13.0°C 53.7°F12.1°C 94% 2.9 mph NE4.7 kmh NE 8.3 mph13.4 kmh 29.90 in1012.5 mb 0.17 in4.3 mm 0.00 in0.0 mm 0.17 in4.3 mm
08:20 AM 55.4°F13.0°C 53.7°F12.1°C 94% 1.7 mph NE2.7 kmh NE 8.3 mph13.4 kmh 29.91 in1012.9 mb 0.17 in4.3 mm 0.00 in0.0 mm 0.17 in4.3 mm
08:25 AM 55.4°F13.0°C 53.7°F12.1°C 94% 0.8 mph NE1.3 kmh NE 5.4 mph8.7 kmh 29.90 in1012.5 mb 0.17 in4.3 mm 0.00 in0.0 mm 0.17 in4.3 mm
08:30 AM 55.2°F12.9°C 53.5°F11.9°C 94% 1.3 mph NE2.1 kmh NE 5.4 mph8.7 kmh 29.91 in1012.9 mb 0.17 in4.3 mm 0.00 in0.0 mm 0.17 in4.3 mm
08:35 AM 54.9°F12.7°C 53.2°F11.8°C 94% 1.3 mph NNE2.1 kmh NNE 4.5 mph7.2 kmh 29.91 in1012.9 mb 0.17 in4.3 mm 0.00 in0.0 mm 0.17 in4.3 mm
08:40 AM 55.0°F12.8°C 53.4°F11.9°C 94% 1.6 mph NNE2.6 kmh NNE 6.9 mph11.1 kmh 29.91 in1012.9 mb 0.12 in3.0 mm 0.00 in0.0 mm 0.17 in4.3 mm
08:45 AM 55.0°F12.8°C 53.4°F11.9°C 94% 2.0 mph NNE3.2 kmh NNE 6.9 mph11.1 kmh 29.91 in1012.9 mb 0.12 in3.0 mm 0.00 in0.0 mm 0.17 in4.3 mm
08:50 AM 54.9°F12.7°C 53.2°F11.8°C 94% 1.8 mph NNE2.9 kmh NNE 6.9 mph11.1 kmh 29.90 in1012.5 mb 0.12 in3.0 mm 0.00 in0.0 mm 0.17 in4.3 mm
08:55 AM 55.0°F12.8°C 53.4°F11.9°C 94% 2.0 mph NNE3.2 kmh NNE 7.6 mph12.2 kmh 29.90 in1012.5 mb 0.00 in0.0 mm 0.00 in0.0 mm 0.17 in4.3 mm
09:00 AM 55.0°F12.8°C 53.4°F11.9°C 94% 1.7 mph NNE2.7 kmh NNE 7.6 mph12.2 kmh 29.90 in1012.5 mb 0.00 in0.0 mm 0.00 in0.0 mm 0.17 in4.3 mm
09:05 AM 55.0°F12.8°C 53.4°F11.9°C 94% 0.8 mph N1.3 kmh N 6.0 mph9.7 kmh 29.91 in1012.9 mb 0.00 in0.0 mm 0.00 in0.0 mm 0.17 in4.3 mm
09:10 AM 55.2°F12.9°C 53.5°F11.9°C 94% 0.5 mph NNE0.8 kmh NNE 6.0 mph9.7 kmh 29.91 in1012.9 mb 0.01 in0.3 mm 0.12 in3.0 mm 0.18 in4.6 mm
09:15 AM 55.2°F12.9°C 53.5°F11.9°C 94% 0.4 mph N0.6 kmh N 6.0 mph9.7 kmh 29.91 in1012.9 mb 0.01 in0.3 mm 0.00 in0.0 mm 0.18 in4.6 mm
09:20 AM 55.4°F13.0°C 53.7°F12.1°C 94% 0.7 mph N1.1 kmh N 6.9 mph11.1 kmh 29.91 in1012.9 mb 0.01 in0.3 mm 0.00 in0.0 mm 0.18 in4.6 mm
09:25 AM 55.4°F13.0°C 53.7°F12.1°C 94% 1.5 mph NW2.4 kmh NW 6.9 mph11.1 kmh 29.90 in1012.5 mb 0.01 in0.3 mm 0.00 in0.0 mm 0.18 in4.6 mm
09:30 AM 55.6°F13.1°C 53.9°F12.2°C 94% 2.4 mph NW3.9 kmh NW 10.7 mph17.2 kmh 29.90 in1012.5 mb 0.01 in0.3 mm 0.00 in0.0 mm 0.18 in4.6 mm
09:35 AM 55.6°F13.1°C 53.9°F12.2°C 94% 1.6 mph NW2.6 kmh NW 10.7 mph17.2 kmh 29.90 in1012.5 mb 0.01 in0.3 mm 0.00 in0.0 mm 0.18 in4.6 mm
09:40 AM 55.8°F13.2°C 54.1°F12.3°C 94% 0.3 mph N0.5 kmh N 6.9 mph11.1 kmh 29.90 in1012.5 mb 0.01 in0.3 mm 0.00 in0.0 mm 0.18 in4.6 mm
09:45 AM 55.9°F13.3°C 54.2°F12.3°C 94% Calm Calm 3.1 mph5.0 kmh 29.91 in1012.9 mb 0.01 in0.3 mm 0.00 in0.0 mm 0.18 in4.6 mm
09:50 AM 56.1°F13.4°C 54.4°F12.4°C 94% 0.2 mph E0.3 kmh E 4.5 mph7.2 kmh 29.90 in1012.5 mb 0.01 in0.3 mm 0.00 in0.0 mm 0.18 in4.6 mm
09:55 AM 56.3°F13.5°C 54.6°F12.6°C 94% 1.2 mph ENE1.9 kmh ENE 5.4 mph8.7 kmh 29.90 in1012.5 mb 0.01 in0.3 mm 0.00 in0.0 mm 0.18 in4.6 mm
10:00 AM 56.3°F13.5°C 54.6°F12.6°C 94% 2.4 mph NE3.9 kmh NE 6.9 mph11.1 kmh 29.90 in1012.5 mb 0.01 in0.3 mm 0.00 in0.0 mm 0.18 in4.6 mm
10:05 AM 56.5°F13.6°C 54.8°F12.7°C 94% 2.8 mph NE4.5 kmh NE 7.6 mph12.2 kmh 29.90 in1012.5 mb 0.00 in0.0 mm 0.00 in0.0 mm 0.18 in4.6 mm
10:10 AM 57.0°F13.9°C 55.3°F12.9°C 94% 2.7 mph NE4.3 kmh NE 7.6 mph12.2 kmh 29.90 in1012.5 mb 0.00 in0.0 mm 0.00 in0.0 mm 0.18 in4.6 mm
10:15 AM 58.1°F14.5°C 56.4°F13.6°C 94% 2.1 mph E3.4 kmh E 7.6 mph12.2 kmh 29.90 in1012.5 mb 0.00 in0.0 mm 0.00 in0.0 mm 0.18 in4.6 mm
10:20 AM 58.1°F14.5°C 56.4°F13.6°C 94% 1.1 mph ESE1.8 kmh ESE 7.6 mph12.2 kmh 29.90 in1012.5 mb 0.00 in0.0 mm 0.00 in0.0 mm 0.18 in4.6 mm
10:25 AM 58.1°F14.5°C 56.4°F13.6°C 94% 1.0 mph ESE1.6 kmh ESE 7.6 mph12.2 kmh 29.90 in1012.5 mb 0.00 in0.0 mm 0.00 in0.0 mm 0.18 in4.6 mm
10:30 AM 58.1°F14.5°C 56.4°F13.6°C 94% 1.0 mph ESE1.6 kmh ESE 7.6 mph12.2 kmh 29.90 in1012.5 mb 0.00 in0.0 mm 0.00 in0.0 mm 0.18 in4.6 mm
10:49 AM 55.8°F13.2°C 48.7°F9.3°C 77% 3.1 mph WNW5.0 kmh WNW 8.3 mph13.4 kmh 30.07 in1018.3 mb 0.00 in0.0 mm 0.00 in0.0 mm 0.18 in4.6 mm
10:54 AM 55.6°F13.1°C 48.5°F9.2°C 77% 3.8 mph W6.1 kmh W 8.3 mph13.4 kmh 30.06 in1017.9 mb 0.00 in0.0 mm 0.00 in0.0 mm 0.18 in4.6 mm
10:59 AM 55.4°F13.0°C 48.7°F9.3°C 78% 4.0 mph WNW6.4 kmh WNW 18.3 mph29.5 kmh 30.07 in1018.3 mb 0.00 in0.0 mm 0.00 in0.0 mm 0.18 in4.6 mm
11:02 AM 56.1°F13.4°C 48.3°F9.1°C 75% 0.7 mph E1.1 kmh E 4.5 mph7.2 kmh 30.06 in1017.9 mb 0.00 in0.0 mm 0.00 in0.0 mm 0.18 in4.6 mm
11:05 AM 62.4°F16.9°C 59.2°F15.1°C 89% 1.1 mph E1.8 kmh E 18.3 mph29.5 kmh 29.93 in1013.5 mb 0.00 in0.0 mm 0.00 in0.0 mm 0.34 in8.6 mm
11:10 AM 61.3°F16.3°C 58.4°F14.7°C 90% 1.4 mph E2.3 kmh E 6.9 mph11.1 kmh 29.93 in1013.5 mb 0.00 in0.0 mm 0.00 in0.0 mm 0.34 in8.6 mm
11:15 AM 61.0°F16.1°C 58.0°F14.4°C 90% 1.7 mph ENE2.7 kmh ENE 6.9 mph11.1 kmh 29.92 in1013.2 mb 0.00 in0.0 mm 0.00 in0.0 mm 0.34 in8.6 mm
11:20 AM 60.6°F15.9°C 58.0°F14.4°C 91% 1.5 mph NE2.4 kmh NE 6.9 mph11.1 kmh 29.93 in1013.5 mb 0.00 in0.0 mm 0.00 in0.0 mm 0.34 in8.6 mm
11:25 AM 60.6°F15.9°C 57.7°F14.3°C 90% 1.1 mph E1.8 kmh E 6.9 mph11.1 kmh 29.93 in1013.5 mb 0.00 in0.0 mm 0.00 in0.0 mm 0.17 in4.3 mm
11:30 AM 60.8°F16.0°C 57.6°F14.2°C 89% 0.5 mph E0.8 kmh E 6.0 mph9.7 kmh 29.93 in1013.5 mb 0.00 in0.0 mm 0.00 in0.0 mm 0.17 in4.3 mm
11:35 AM 61.0°F16.1°C 57.7°F14.3°C 89% 0.2 mph E0.3 kmh E 3.8 mph6.1 kmh 29.93 in1013.5 mb 0.00 in0.0 mm 0.00 in0.0 mm 0.17 in4.3 mm
11:40 AM 61.5°F16.4°C 57.3°F14.1°C 86% 0.7 mph ENE1.1 kmh ENE 5.4 mph8.7 kmh 29.92 in1013.2 mb 0.00 in0.0 mm 0.00 in0.0 mm 0.17 in4.3 mm
11:45 AM 61.5°F16.4°C 57.0°F13.9°C 85% 0.5 mph NE0.8 kmh NE 5.4 mph8.7 kmh 29.92 in1013.2 mb 0.00 in0.0 mm 0.00 in0.0 mm 0.17 in4.3 mm
11:50 AM 61.3°F16.3°C 56.1°F13.4°C 83% Calm Calm 2.2 mph3.5 kmh 29.92 in1013.2 mb 0.00 in0.0 mm 0.00 in0.0 mm 0.17 in4.3 mm
11:55 AM 61.9°F16.6°C 56.7°F13.7°C 83% Calm Calm 1.6 mph2.6 kmh 29.92 in1013.2 mb 0.00 in0.0 mm 0.00 in0.0 mm 0.17 in4.3 mm
12:00 PM 61.9°F16.6°C 56.7°F13.7°C 83% Calm Calm 1.6 mph2.6 kmh 29.91 in1012.9 mb 0.00 in0.0 mm 0.00 in0.0 mm 0.17 in4.3 mm
12:05 PM 61.9°F16.6°C 56.0°F13.3°C 81% Calm Calm 1.6 mph2.6 kmh 29.91 in1012.9 mb 0.00 in0.0 mm 0.00 in0.0 mm 0.17 in4.3 mm
12:10 PM 62.1°F16.7°C 56.2°F13.4°C 81% Calm Calm 1.6 mph2.6 kmh 29.91 in1012.9 mb 0.00 in0.0 mm 0.00 in0.0 mm 0.17 in4.3 mm
12:15 PM 61.9°F16.6°C 55.7°F13.2°C 80% Calm Calm -- 29.90 in1012.5 mb 0.00 in0.0 mm 0.00 in0.0 mm 0.17 in4.3 mm
12:20 PM 61.9°F16.6°C 55.3°F12.9°C 79% Calm Calm -- 29.90 in1012.5 mb 0.00 in0.0 mm 0.00 in0.0 mm 0.17 in4.3 mm
12:25 PM 62.4°F16.9°C 55.8°F13.2°C 79% Calm Calm -- 29.90 in1012.5 mb 0.00 in0.0 mm 0.00 in0.0 mm 0.17 in4.3 mm
12:30 PM 62.2°F16.8°C 55.7°F13.2°C 79% Calm Calm -- 29.90 in1012.5 mb 0.00 in0.0 mm 0.00 in0.0 mm 0.17 in4.3 mm
12:35 PM 62.1°F16.7°C 55.5°F13.1°C 79% Calm Calm -- 29.90 in1012.5 mb 0.00 in0.0 mm 0.00 in0.0 mm 0.17 in4.3 mm
12:40 PM 62.4°F16.9°C 55.5°F13.1°C 78% Calm Calm -- 29.90 in1012.5 mb 0.00 in0.0 mm 0.00 in0.0 mm 0.17 in4.3 mm
12:45 PM 62.2°F16.8°C 55.7°F13.2°C 79% Calm Calm -- 29.90 in1012.5 mb 0.00 in0.0 mm 0.00 in0.0 mm 0.17 in4.3 mm
12:50 PM 62.1°F16.7°C 55.5°F13.1°C 79% Calm Calm -- 29.90 in1012.5 mb 0.00 in0.0 mm 0.00 in0.0 mm 0.17 in4.3 mm
12:55 PM 62.1°F16.7°C 55.8°F13.2°C 80% Calm Calm -- 29.90 in1012.5 mb 0.00 in0.0 mm 0.00 in0.0 mm 0.17 in4.3 mm
01:00 PM 62.1°F16.7°C 55.8°F13.2°C 80% Calm Calm -- 29.90 in1012.5 mb 0.00 in0.0 mm 0.00 in0.0 mm 0.17 in4.3 mm
01:05 PM 61.9°F16.6°C 55.7°F13.2°C 80% Calm Calm -- 29.90 in1012.5 mb 0.00 in0.0 mm 0.00 in0.0 mm 0.17 in4.3 mm
01:10 PM 62.1°F16.7°C 55.8°F13.2°C 80% Calm Calm 0.7 mph1.1 kmh 29.90 in1012.5 mb 0.00 in0.0 mm 0.00 in0.0 mm 0.17 in4.3 mm
01:15 PM 61.9°F16.6°C 55.7°F13.2°C 80% Calm Calm 0.7 mph1.1 kmh 29.89 in1012.2 mb 0.00 in0.0 mm 0.00 in0.0 mm 0.17 in4.3 mm
01:20 PM 61.9°F16.6°C 56.0°F13.3°C 81% Calm Calm -- 29.89 in1012.2 mb 0.00 in0.0 mm 0.00 in0.0 mm 0.17 in4.3 mm
01:25 PM 61.9°F16.6°C 56.0°F13.3°C 81% Calm Calm 1.6 mph2.6 kmh 29.89 in1012.2 mb 0.00 in0.0 mm 0.00 in0.0 mm 0.17 in4.3 mm
01:30 PM 62.1°F16.7°C 56.5°F13.6°C 82% Calm Calm 1.6 mph2.6 kmh 29.89 in1012.2 mb 0.00 in0.0 mm 0.00 in0.0 mm 0.17 in4.3 mm
01:35 PM 61.7°F16.5°C 55.8°F13.2°C 81% Calm Calm 2.2 mph3.5 kmh 29.89 in1012.2 mb 0.00 in0.0 mm 0.00 in0.0 mm 0.17 in4.3 mm
01:40 PM 61.7°F16.5°C 55.8°F13.2°C 81% Calm Calm 2.2 mph3.5 kmh 29.89 in1012.2 mb 0.00 in0.0 mm 0.00 in0.0 mm 0.17 in4.3 mm
01:45 PM 61.7°F16.5°C 55.8°F13.2°C 81% Calm Calm -- 29.89 in1012.2 mb 0.00 in0.0 mm 0.00 in0.0 mm 0.17 in4.3 mm
01:50 PM 61.9°F16.6°C 56.3°F13.5°C 82% Calm Calm 0.7 mph1.1 kmh 29.89 in1012.2 mb 0.00 in0.0 mm 0.00 in0.0 mm 0.17 in4.3 mm
01:55 PM 62.1°F16.7°C 56.5°F13.6°C 82% Calm Calm 0.7 mph1.1 kmh 29.89 in1012.2 mb 0.00 in0.0 mm 0.00 in0.0 mm 0.17 in4.3 mm
02:00 PM 61.9°F16.6°C 56.0°F13.3°C 81% Calm Calm 0.7 mph1.1 kmh 29.89 in1012.2 mb 0.00 in0.0 mm 0.00 in0.0 mm 0.17 in4.3 mm
02:05 PM 62.1°F16.7°C 56.2°F13.4°C 81% Calm Calm 0.7 mph1.1 kmh 29.89 in1012.2 mb 0.00 in0.0 mm 0.00 in0.0 mm 0.17 in4.3 mm
02:10 PM 61.9°F16.6°C 56.0°F13.3°C 81% Calm Calm 0.7 mph1.1 kmh 29.89 in1012.2 mb 0.00 in0.0 mm 0.00 in0.0 mm 0.17 in4.3 mm
02:15 PM 61.7°F16.5°C 55.8°F13.2°C 81% Calm Calm 0.7 mph1.1 kmh 29.89 in1012.2 mb 0.00 in0.0 mm 0.00 in0.0 mm 0.17 in4.3 mm
02:20 PM 61.7°F16.5°C 55.8°F13.2°C 81% Calm Calm 0.7 mph1.1 kmh 29.89 in1012.2 mb 0.00 in0.0 mm 0.00 in0.0 mm 0.17 in4.3 mm
02:25 PM 61.7°F16.5°C 56.2°F13.4°C 82% Calm Calm 0.7 mph1.1 kmh 29.88 in1011.9 mb 0.00 in0.0 mm 0.00 in0.0 mm 0.17 in4.3 mm
02:30 PM 61.5°F16.4°C 55.6°F13.1°C 81% Calm Calm -- 29.88 in1011.9 mb 0.00 in0.0 mm 0.00 in0.0 mm 0.17 in4.3 mm
02:35 PM 61.3°F16.3°C 55.5°F13.1°C 81% Calm Calm -- 29.88 in1011.9 mb 0.00 in0.0 mm 0.00 in0.0 mm 0.17 in4.3 mm
02:40 PM 61.5°F16.4°C 55.6°F13.1°C 81% Calm Calm -- 29.88 in1011.9 mb 0.00 in0.0 mm 0.00 in0.0 mm 0.17 in4.3 mm
02:45 PM 61.5°F16.4°C 55.6°F13.1°C 81% Calm Calm -- 29.88 in1011.9 mb 0.00 in0.0 mm 0.00 in0.0 mm 0.17 in4.3 mm
02:50 PM 61.5°F16.4°C 55.6°F13.1°C 81% Calm Calm -- 29.88 in1011.9 mb 0.00 in0.0 mm 0.00 in0.0 mm 0.17 in4.3 mm
02:55 PM 61.3°F16.3°C 55.5°F13.1°C 81% Calm Calm -- 29.87 in1011.5 mb 0.00 in0.0 mm 0.00 in0.0 mm 0.17 in4.3 mm
03:00 PM 61.3°F16.3°C 55.5°F13.1°C 81% Calm Calm -- 29.87 in1011.5 mb 0.00 in0.0 mm 0.00 in0.0 mm 0.17 in4.3 mm
03:05 PM 61.2°F16.2°C 55.3°F12.9°C 81% Calm Calm -- 29.87 in1011.5 mb 0.00 in0.0 mm 0.00 in0.0 mm 0.17 in4.3 mm
03:10 PM 61.3°F16.3°C 55.8°F13.2°C 82% Calm Calm 0.7 mph1.1 kmh 29.87 in1011.5 mb 0.00 in0.0 mm 0.00 in0.0 mm 0.17 in4.3 mm
03:15 PM 61.0°F16.1°C 55.5°F13.1°C 82% Calm Calm 0.7 mph1.1 kmh 29.87 in1011.5 mb 0.00 in0.0 mm 0.00 in0.0 mm 0.17 in4.3 mm
03:20 PM 61.0°F16.1°C 55.5°F13.1°C 82% Calm Calm 0.7 mph1.1 kmh 29.87 in1011.5 mb 0.00 in0.0 mm 0.00 in0.0 mm 0.17 in4.3 mm
03:25 PM 61.0°F16.1°C 55.8°F13.2°C 83% Calm Calm -- 29.87 in1011.5 mb 0.00 in0.0 mm 0.00 in0.0 mm 0.17 in4.3 mm
03:30 PM 60.8°F16.0°C 55.6°F13.1°C 83% Calm Calm -- 29.87 in1011.5 mb 0.00 in0.0 mm 0.00 in0.0 mm 0.17 in4.3 mm
03:35 PM 60.8°F16.0°C 55.9°F13.3°C 84% Calm Calm 0.7 mph1.1 kmh 29.88 in1011.9 mb 0.00 in0.0 mm 0.00 in0.0 mm 0.17 in4.3 mm
03:40 PM 60.4°F15.8°C 55.9°F13.3°C 85% 0.1 mph S0.2 kmh S 3.1 mph5.0 kmh 29.88 in1011.9 mb 0.00 in0.0 mm 0.00 in0.0 mm 0.17 in4.3 mm
03:45 PM 60.4°F15.8°C 56.2°F13.4°C 86% 0.1 mph S0.2 kmh S 3.1 mph5.0 kmh 29.88 in1011.9 mb 0.00 in0.0 mm 0.00 in0.0 mm 0.17 in4.3 mm
03:50 PM 60.4°F15.8°C 56.6°F13.7°C 87% Calm Calm 1.6 mph2.6 kmh 29.88 in1011.9 mb 0.00 in0.0 mm 0.00 in0.0 mm 0.17 in4.3 mm
03:55 PM 60.3°F15.7°C 56.4°F13.6°C 87% Calm Calm 1.6 mph2.6 kmh 29.88 in1011.9 mb 0.00 in0.0 mm 0.00 in0.0 mm 0.17 in4.3 mm
04:00 PM 59.9°F15.5°C 56.4°F13.6°C 88% Calm Calm -- 29.88 in1011.9 mb 0.00 in0.0 mm 0.00 in0.0 mm 0.17 in4.3 mm
04:05 PM 60.1°F15.6°C 56.8°F13.8°C 89% Calm Calm 0.7 mph1.1 kmh 29.88 in1011.9 mb 0.00 in0.0 mm 0.00 in0.0 mm 0.17 in4.3 mm
04:10 PM 60.1°F15.6°C 56.8°F13.8°C 89% Calm Calm 0.7 mph1.1 kmh 29.88 in1011.9 mb 0.00 in0.0 mm 0.00 in0.0 mm 0.17 in4.3 mm
04:15 PM 60.1°F15.6°C 57.2°F14.0°C 90% Calm Calm 0.7 mph1.1 kmh 29.88 in1011.9 mb 0.00 in0.0 mm 0.00 in0.0 mm 0.17 in4.3 mm
04:20 PM 59.9°F15.5°C 57.3°F14.1°C 91% Calm Calm 0.7 mph1.1 kmh 29.88 in1011.9 mb 0.00 in0.0 mm 0.00 in0.0 mm 0.17 in4.3 mm
04:25 PM 59.7°F15.4°C 57.1°F13.9°C 91% Calm Calm 0.7 mph1.1 kmh 29.88 in1011.9 mb 0.00 in0.0 mm 0.00 in0.0 mm 0.17 in4.3 mm
04:30 PM 59.5°F15.3°C 57.2°F14.0°C 92% Calm Calm 0.7 mph1.1 kmh 29.88 in1011.9 mb 0.00 in0.0 mm 0.00 in0.0 mm 0.17 in4.3 mm
04:35 PM 59.5°F15.3°C 57.2°F14.0°C 92% Calm Calm 0.7 mph1.1 kmh 29.87 in1011.5 mb 0.00 in0.0 mm 0.00 in0.0 mm 0.17 in4.3 mm
04:40 PM 59.7°F15.4°C 57.7°F14.3°C 93% Calm Calm 0.7 mph1.1 kmh 29.88 in1011.9 mb 0.00 in0.0 mm 0.00 in0.0 mm 0.17 in4.3 mm
04:45 PM 59.2°F15.1°C 57.2°F14.0°C 93% Calm Calm -- 29.88 in1011.9 mb 0.00 in0.0 mm 0.00 in0.0 mm 0.17 in4.3 mm
04:50 PM 59.2°F15.1°C 57.2°F14.0°C 93% Calm Calm -- 29.88 in1011.9 mb 0.00 in0.0 mm 0.00 in0.0 mm 0.17 in4.3 mm
04:55 PM 59.0°F15.0°C 57.3°F14.1°C 94% Calm Calm -- 29.88 in1011.9 mb 0.00 in0.0 mm 0.00 in0.0 mm 0.17 in4.3 mm
05:00 PM 58.8°F14.9°C 57.1°F13.9°C 94% Calm Calm -- 29.88 in1011.9 mb 0.00 in0.0 mm 0.00 in0.0 mm 0.17 in4.3 mm
05:05 PM 58.6°F14.8°C 56.9°F13.8°C 94% Calm Calm 0.7 mph1.1 kmh 29.88 in1011.9 mb 0.00 in0.0 mm 0.00 in0.0 mm 0.17 in4.3 mm
05:10 PM 58.5°F14.7°C 56.8°F13.8°C 94% Calm Calm 0.7 mph1.1 kmh 29.88 in1011.9 mb 0.00 in0.0 mm 0.00 in0.0 mm 0.17 in4.3 mm
05:15 PM 58.6°F14.8°C 56.9°F13.8°C 94% Calm Calm -- 29.89 in1012.2 mb 0.00 in0.0 mm 0.00 in0.0 mm 0.17 in4.3 mm
05:20 PM 58.3°F14.6°C 56.6°F13.7°C 94% Calm Calm -- 29.88 in1011.9 mb 0.00 in0.0 mm 0.00 in0.0 mm 0.17 in4.3 mm
05:25 PM 58.1°F14.5°C 56.4°F13.6°C 94% Calm Calm -- 29.88 in1011.9 mb 0.00 in0.0 mm 0.00 in0.0 mm 0.17 in4.3 mm
05:30 PM 58.1°F14.5°C 56.4°F13.6°C 94% Calm Calm -- 29.88 in1011.9 mb 0.00 in0.0 mm 0.00 in0.0 mm 0.17 in4.3 mm
05:35 PM 58.1°F14.5°C 56.4°F13.6°C 94% Calm Calm -- 29.87 in1011.5 mb 0.00 in0.0 mm 0.00 in0.0 mm 0.17 in4.3 mm
05:40 PM 57.9°F14.4°C 56.2°F13.4°C 94% Calm Calm -- 29.87 in1011.5 mb 0.00 in0.0 mm 0.00 in0.0 mm 0.17 in4.3 mm
05:45 PM 58.1°F14.5°C 56.4°F13.6°C 94% Calm Calm -- 29.88 in1011.9 mb 0.00 in0.0 mm 0.00 in0.0 mm 0.17 in4.3 mm
05:50 PM 57.9°F14.4°C 56.2°F13.4°C 94% Calm Calm -- 29.88 in1011.9 mb 0.00 in0.0 mm 0.00 in0.0 mm 0.17 in4.3 mm
05:55 PM 57.7°F14.3°C 56.0°F13.3°C 94% Calm Calm -- 29.88 in1011.9 mb 0.00 in0.0 mm 0.00 in0.0 mm 0.17 in4.3 mm
06:00 PM 57.7°F14.3°C 56.0°F13.3°C 94% Calm Calm -- 29.88 in1011.9 mb 0.00 in0.0 mm 0.00 in0.0 mm 0.17 in4.3 mm
06:05 PM 57.7°F14.3°C 56.0°F13.3°C 94% Calm Calm -- 29.89 in1012.2 mb 0.00 in0.0 mm 0.00 in0.0 mm 0.17 in4.3 mm
06:10 PM 57.4°F14.1°C 55.7°F13.2°C 94% Calm Calm -- 29.88 in1011.9 mb 0.00 in0.0 mm 0.00 in0.0 mm 0.17 in4.3 mm
06:15 PM 57.2°F14.0°C 55.5°F13.1°C 94% Calm Calm -- 29.88 in1011.9 mb 0.00 in0.0 mm 0.00 in0.0 mm 0.17 in4.3 mm
06:20 PM 57.2°F14.0°C 55.5°F13.1°C 94% Calm Calm -- 29.89 in1012.2 mb 0.00 in0.0 mm 0.00 in0.0 mm 0.17 in4.3 mm
06:25 PM 57.2°F14.0°C 55.5°F13.1°C 94% Calm Calm -- 29.88 in1011.9 mb 0.00 in0.0 mm 0.00 in0.0 mm 0.17 in4.3 mm
06:30 PM 57.0°F13.9°C 55.3°F12.9°C 94% Calm Calm -- 29.88 in1011.9 mb 0.00 in0.0 mm 0.00 in0.0 mm 0.17 in4.3 mm
06:35 PM 56.8°F13.8°C 55.1°F12.8°C 94% Calm Calm -- 29.88 in1011.9 mb 0.00 in0.0 mm 0.00 in0.0 mm 0.17 in4.3 mm
06:40 PM 57.0°F13.9°C 55.3°F12.9°C 94% Calm Calm -- 29.88 in1011.9 mb 0.00 in0.0 mm 0.00 in0.0 mm 0.17 in4.3 mm
06:45 PM 56.8°F13.8°C 55.1°F12.8°C 94% Calm Calm -- 29.88 in1011.9 mb 0.00 in0.0 mm 0.00 in0.0 mm 0.17 in4.3 mm
06:50 PM 56.8°F13.8°C 55.1°F12.8°C 94% Calm Calm -- 29.88 in1011.9 mb 0.00 in0.0 mm 0.00 in0.0 mm 0.17 in4.3 mm
06:55 PM 57.0°F13.9°C 55.3°F12.9°C 94% Calm Calm -- 29.88 in1011.9 mb 0.00 in0.0 mm 0.00 in0.0 mm 0.17 in4.3 mm
07:00 PM 56.7°F13.7°C 55.0°F12.8°C 94% Calm Calm -- 29.89 in1012.2 mb 0.00 in0.0 mm 0.00 in0.0 mm 0.17 in4.3 mm
07:05 PM 56.5°F13.6°C 54.8°F12.7°C 94% Calm Calm -- 29.88 in1011.9 mb 0.00 in0.0 mm 0.00 in0.0 mm 0.17 in4.3 mm
07:10 PM 56.3°F13.5°C 54.6°F12.6°C 94% Calm Calm -- 29.89 in1012.2 mb 0.00 in0.0 mm 0.00 in0.0 mm 0.17 in4.3 mm
07:15 PM 56.3°F13.5°C 54.6°F12.6°C 94% Calm Calm 0.7 mph1.1 kmh 29.89 in1012.2 mb 0.00 in0.0 mm 0.00 in0.0 mm 0.17 in4.3 mm
07:20 PM 56.3°F13.5°C 54.6°F12.6°C 94% Calm Calm 0.7 mph1.1 kmh 29.89 in1012.2 mb 0.00 in0.0 mm 0.00 in0.0 mm 0.17 in4.3 mm
07:25 PM 56.3°F13.5°C 54.6°F12.6°C 94% Calm Calm -- 29.89 in1012.2 mb 0.00 in0.0 mm 0.00 in0.0 mm 0.17 in4.3 mm
07:30 PM 55.9°F13.3°C 54.2°F12.3°C 94% Calm Calm -- 29.89 in1012.2 mb 0.00 in0.0 mm 0.00 in0.0 mm 0.17 in4.3 mm
07:35 PM 56.1°F13.4°C 54.4°F12.4°C 94% Calm Calm -- 29.89 in1012.2 mb 0.00 in0.0 mm 0.00 in0.0 mm 0.17 in4.3 mm
07:40 PM 55.9°F13.3°C 54.2°F12.3°C 94% Calm Calm -- 29.89 in1012.2 mb 0.00 in0.0 mm 0.00 in0.0 mm 0.17 in4.3 mm
07:45 PM 55.9°F13.3°C 54.2°F12.3°C 94% Calm Calm -- 29.89 in1012.2 mb 0.00 in0.0 mm 0.00 in0.0 mm 0.17 in4.3 mm
07:50 PM 55.6°F13.1°C 53.9°F12.2°C 94% Calm Calm -- 29.89 in1012.2 mb 0.00 in0.0 mm 0.00 in0.0 mm 0.17 in4.3 mm
07:55 PM 55.6°F13.1°C 53.9°F12.2°C 94% Calm Calm -- 29.89 in1012.2 mb 0.00 in0.0 mm 0.00 in0.0 mm 0.17 in4.3 mm
08:00 PM 55.6°F13.1°C 53.9°F12.2°C 94% Calm Calm -- 29.89 in1012.2 mb 0.00 in0.0 mm 0.00 in0.0 mm 0.17 in4.3 mm
08:05 PM 55.6°F13.1°C 53.9°F12.2°C 94% Calm Calm -- 29.89 in1012.2 mb 0.00 in0.0 mm 0.00 in0.0 mm 0.17 in4.3 mm
08:10 PM 55.6°F13.1°C 53.9°F12.2°C 94% Calm Calm -- 29.89 in1012.2 mb 0.00 in0.0 mm 0.00 in0.0 mm 0.17 in4.3 mm
08:15 PM 55.4°F13.0°C 53.7°F12.1°C 94% Calm Calm -- 29.89 in1012.2 mb 0.00 in0.0 mm 0.00 in0.0 mm 0.17 in4.3 mm
08:20 PM 55.4°F13.0°C 53.7°F12.1°C 94% Calm Calm -- 29.89 in1012.2 mb 0.00 in0.0 mm 0.00 in0.0 mm 0.17 in4.3 mm
08:25 PM 55.4°F13.0°C 53.7°F12.1°C 94% Calm Calm -- 29.89 in1012.2 mb 0.00 in0.0 mm 0.00 in0.0 mm 0.17 in4.3 mm
08:30 PM 55.4°F13.0°C 53.7°F12.1°C 94% Calm Calm -- 29.89 in1012.2 mb 0.00 in0.0 mm 0.00 in0.0 mm 0.17 in4.3 mm
08:35 PM 55.4°F13.0°C 53.7°F12.1°C 94% Calm Calm -- 29.89 in1012.2 mb 0.00 in0.0 mm 0.00 in0.0 mm 0.17 in4.3 mm
08:40 PM 55.6°F13.1°C 53.9°F12.2°C 94% Calm Calm -- 29.89 in1012.2 mb 0.00 in0.0 mm 0.00 in0.0 mm 0.17 in4.3 mm
08:45 PM 55.4°F13.0°C 53.7°F12.1°C 94% Calm Calm -- 29.89 in1012.2 mb 0.00 in0.0 mm 0.00 in0.0 mm 0.17 in4.3 mm
08:50 PM 55.4°F13.0°C 53.7°F12.1°C 94% Calm Calm -- 29.89 in1012.2 mb 0.00 in0.0 mm 0.00 in0.0 mm 0.17 in4.3 mm
08:55 PM 55.6°F13.1°C 53.9°F12.2°C 94% Calm Calm -- 29.89 in1012.2 mb 0.00 in0.0 mm 0.00 in0.0 mm 0.17 in4.3 mm
09:00 PM 55.6°F13.1°C 53.9°F12.2°C 94% Calm Calm -- 29.89 in1012.2 mb 0.00 in0.0 mm 0.00 in0.0 mm 0.17 in4.3 mm
09:05 PM 55.8°F13.2°C 54.1°F12.3°C 94% Calm Calm -- 29.89 in1012.2 mb 0.00 in0.0 mm 0.00 in0.0 mm 0.17 in4.3 mm
09:10 PM 55.6°F13.1°C 53.9°F12.2°C 94% Calm Calm -- 29.89 in1012.2 mb 0.00 in0.0 mm 0.00 in0.0 mm 0.17 in4.3 mm
09:15 PM 55.8°F13.2°C 54.1°F12.3°C 94% Calm Calm -- 29.90 in1012.5 mb 0.00 in0.0 mm 0.00 in0.0 mm 0.17 in4.3 mm
09:20 PM 55.6°F13.1°C 53.9°F12.2°C 94% Calm Calm -- 29.90 in1012.5 mb 0.00 in0.0 mm 0.00 in0.0 mm 0.17 in4.3 mm
09:25 PM 55.6°F13.1°C 53.9°F12.2°C 94% Calm Calm -- 29.90 in1012.5 mb 0.00 in0.0 mm 0.00 in0.0 mm 0.17 in4.3 mm
09:30 PM 55.6°F13.1°C 53.9°F12.2°C 94% Calm Calm 0.7 mph1.1 kmh 29.90 in1012.5 mb 0.00 in0.0 mm 0.00 in0.0 mm 0.17 in4.3 mm
09:35 PM 55.8°F13.2°C 54.1°F12.3°C 94% Calm Calm 0.7 mph1.1 kmh 29.90 in1012.5 mb 0.00 in0.0 mm 0.00 in0.0 mm 0.17 in4.3 mm
09:40 PM 55.6°F13.1°C 53.9°F12.2°C 94% Calm Calm 0.7 mph1.1 kmh 29.90 in1012.5 mb 0.00 in0.0 mm 0.00 in0.0 mm 0.17 in4.3 mm
09:45 PM 55.6°F13.1°C 53.9°F12.2°C 94% Calm Calm -- 29.90 in1012.5 mb 0.00 in0.0 mm 0.00 in0.0 mm 0.17 in4.3 mm
09:50 PM 55.6°F13.1°C 53.9°F12.2°C 94% Calm Calm -- 29.90 in1012.5 mb 0.00 in0.0 mm 0.00 in0.0 mm 0.17 in4.3 mm
09:55 PM 55.6°F13.1°C 53.9°F12.2°C 94% Calm Calm -- 29.90 in1012.5 mb 0.00 in0.0 mm 0.00 in0.0 mm 0.17 in4.3 mm
10:05 PM 55.8°F13.2°C 54.1°F12.3°C 94% Calm Calm -- 29.90 in1012.5 mb 0.00 in0.0 mm 0.00 in0.0 mm 0.17 in4.3 mm
10:10 PM 55.6°F13.1°C 53.9°F12.2°C 94% Calm Calm -- 29.90 in1012.5 mb 0.00 in0.0 mm 0.00 in0.0 mm 0.17 in4.3 mm
10:15 PM 55.6°F13.1°C 53.9°F12.2°C 94% Calm Calm -- 29.90 in1012.5 mb 0.00 in0.0 mm 0.00 in0.0 mm 0.17 in4.3 mm
10:20 PM 55.4°F13.0°C 53.7°F12.1°C 94% Calm Calm -- 29.90 in1012.5 mb 0.00 in0.0 mm 0.00 in0.0 mm 0.17 in4.3 mm
10:25 PM 55.4°F13.0°C 53.7°F12.1°C 94% Calm Calm -- 29.90 in1012.5 mb 0.00 in0.0 mm 0.00 in0.0 mm 0.17 in4.3 mm
10:30 PM 55.2°F12.9°C 53.5°F11.9°C 94% Calm Calm -- 29.90 in1012.5 mb 0.00 in0.0 mm 0.00 in0.0 mm 0.17 in4.3 mm
10:35 PM 55.2°F12.9°C 53.5°F11.9°C 94% Calm Calm 0.7 mph1.1 kmh 29.90 in1012.5 mb 0.00 in0.0 mm 0.00 in0.0 mm 0.17 in4.3 mm
10:40 PM 55.0°F12.8°C 53.4°F11.9°C 94% Calm Calm 0.7 mph1.1 kmh 29.90 in1012.5 mb 0.00 in0.0 mm 0.00 in0.0 mm 0.17 in4.3 mm
10:45 PM 55.0°F12.8°C 53.4°F11.9°C 94% Calm Calm 0.7 mph1.1 kmh 29.90 in1012.5 mb 0.00 in0.0 mm 0.00 in0.0 mm 0.17 in4.3 mm
10:50 PM 55.0°F12.8°C 53.4°F11.9°C 94% Calm Calm 0.7 mph1.1 kmh 29.90 in1012.5 mb 0.00 in0.0 mm 0.00 in0.0 mm 0.17 in4.3 mm
10:55 PM 54.9°F12.7°C 53.2°F11.8°C 94% Calm Calm -- 29.90 in1012.5 mb 0.00 in0.0 mm 0.00 in0.0 mm 0.17 in4.3 mm
11:00 PM 54.9°F12.7°C 53.2°F11.8°C 94% Calm Calm -- 29.90 in1012.5 mb 0.00 in0.0 mm 0.00 in0.0 mm 0.17 in4.3 mm
11:05 PM 54.9°F12.7°C 53.2°F11.8°C 94% Calm Calm -- 29.90 in1012.5 mb 0.00 in0.0 mm 0.00 in0.0 mm 0.17 in4.3 mm
11:10 PM 54.7°F12.6°C 53.0°F11.7°C 94% Calm Calm -- 29.90 in1012.5 mb 0.00 in0.0 mm 0.00 in0.0 mm 0.17 in4.3 mm
11:15 PM 54.7°F12.6°C 53.0°F11.7°C 94% Calm Calm -- 29.90 in1012.5 mb 0.00 in0.0 mm 0.00 in0.0 mm 0.17 in4.3 mm
11:20 PM 54.5°F12.5°C 52.8°F11.6°C 94% Calm Calm -- 29.90 in1012.5 mb 0.00 in0.0 mm 0.00 in0.0 mm 0.17 in4.3 mm
11:25 PM 54.5°F12.5°C 52.8°F11.6°C 94% Calm Calm 0.7 mph1.1 kmh 29.90 in1012.5 mb 0.00 in0.0 mm 0.00 in0.0 mm 0.17 in4.3 mm
11:30 PM 54.3°F12.4°C 52.6°F11.4°C 94% Calm Calm 0.7 mph1.1 kmh 29.89 in1012.2 mb 0.00 in0.0 mm 0.00 in0.0 mm 0.17 in4.3 mm
11:35 PM 54.3°F12.4°C 52.6°F11.4°C 94% Calm Calm 0.7 mph1.1 kmh 29.89 in1012.2 mb 0.00 in0.0 mm 0.00 in0.0 mm 0.17 in4.3 mm
11:40 PM 54.1°F12.3°C 52.5°F11.4°C 94% Calm Calm -- 29.89 in1012.2 mb 0.00 in0.0 mm 0.00 in0.0 mm 0.17 in4.3 mm
11:45 PM 54.0°F12.2°C 52.3°F11.3°C 94% Calm Calm -- 29.89 in1012.2 mb 0.00 in0.0 mm 0.00 in0.0 mm 0.17 in4.3 mm
11:50 PM 54.0°F12.2°C 52.3°F11.3°C 94% Calm Calm 0.7 mph1.1 kmh 29.89 in1012.2 mb 0.00 in0.0 mm 0.00 in0.0 mm 0.17 in4.3 mm
11:55 PM 54.0°F12.2°C 52.3°F11.3°C 94% Calm Calm 0.7 mph1.1 kmh 29.89 in1012.2 mb 0.00 in0.0 mm 0.00 in0.0 mm 0.17 in4.3 mm